sensor_id;sensor_type;location;lat;lon;timestamp;P1;durP1;ratioP1;P2;durP2;ratioP2
5032;SDS011;2535;49.888;8.942;2023-05-23T00:01:29;84.10;;;9.67;;
5032;SDS011;2535;49.888;8.942;2023-05-23T00:04:01;84.00;;;10.00;;
5032;SDS011;2535;49.888;8.942;2023-05-23T00:06:27;79.93;;;10.23;;
5032;SDS011;2535;49.888;8.942;2023-05-23T00:08:53;82.57;;;9.57;;
5032;SDS011;2535;49.888;8.942;2023-05-23T00:11:19;79.43;;;8.93;;
5032;SDS011;2535;49.888;8.942;2023-05-23T00:13:51;82.70;;;7.30;;
5032;SDS011;2535;49.888;8.942;2023-05-23T00:16:17;94.73;;;9.70;;
5032;SDS011;2535;49.888;8.942;2023-05-23T00:18:42;86.00;;;10.27;;
5032;SDS011;2535;49.888;8.942;2023-05-23T00:21:09;81.20;;;9.03;;
5032;SDS011;2535;49.888;8.942;2023-05-23T00:23:35;81.03;;;10.30;;
5032;SDS011;2535;49.888;8.942;2023-05-23T00:26:02;81.13;;;9.67;;
5032;SDS011;2535;49.888;8.942;2023-05-23T00:28:28;85.60;;;9.10;;
5032;SDS011;2535;49.888;8.942;2023-05-23T00:30:54;76.43;;;8.90;;
5032;SDS011;2535;49.888;8.942;2023-05-23T00:33:20;87.93;;;11.77;;
5032;SDS011;2535;49.888;8.942;2023-05-23T00:35:49;95.53;;;10.83;;
5032;SDS011;2535;49.888;8.942;2023-05-23T00:38:15;90.83;;;12.47;;
5032;SDS011;2535;49.888;8.942;2023-05-23T00:40:41;76.10;;;8.97;;
5032;SDS011;2535;49.888;8.942;2023-05-23T00:43:07;94.20;;;12.30;;
5032;SDS011;2535;49.888;8.942;2023-05-23T00:45:33;79.87;;;9.23;;
5032;SDS011;2535;49.888;8.942;2023-05-23T00:47:59;83.40;;;9.93;;
5032;SDS011;2535;49.888;8.942;2023-05-23T00:50:25;88.67;;;9.90;;
5032;SDS011;2535;49.888;8.942;2023-05-23T00:52:53;88.57;;;11.53;;
5032;SDS011;2535;49.888;8.942;2023-05-23T00:55:20;85.17;;;10.00;;
5032;SDS011;2535;49.888;8.942;2023-05-23T00:57:46;88.67;;;9.87;;
5032;SDS011;2535;49.888;8.942;2023-05-23T01:00:12;82.83;;;10.00;;
5032;SDS011;2535;49.888;8.942;2023-05-23T01:02:41;87.43;;;11.10;;
5032;SDS011;2535;49.888;8.942;2023-05-23T01:05:09;84.30;;;10.13;;
5032;SDS011;2535;49.888;8.942;2023-05-23T01:07:38;92.47;;;10.30;;
5032;SDS011;2535;49.888;8.942;2023-05-23T01:10:04;91.70;;;10.43;;
5032;SDS011;2535;49.888;8.942;2023-05-23T01:12:40;88.87;;;10.17;;
5032;SDS011;2535;49.888;8.942;2023-05-23T01:15:08;95.50;;;10.80;;
5032;SDS011;2535;49.888;8.942;2023-05-23T01:17:41;105.50;;;12.90;;
5032;SDS011;2535;49.888;8.942;2023-05-23T01:20:21;86.03;;;10.30;;
5032;SDS011;2535;49.888;8.942;2023-05-23T01:22:58;87.30;;;9.70;;
5032;SDS011;2535;49.888;8.942;2023-05-23T01:25:46;87.97;;;11.07;;
5032;SDS011;2535;49.888;8.942;2023-05-23T01:28:15;89.30;;;13.10;;
5032;SDS011;2535;49.888;8.942;2023-05-23T01:30:41;91.73;;;10.73;;
5032;SDS011;2535;49.888;8.942;2023-05-23T01:33:09;93.80;;;11.83;;
5032;SDS011;2535;49.888;8.942;2023-05-23T01:35:36;90.47;;;10.23;;
5032;SDS011;2535;49.888;8.942;2023-05-23T01:38:02;91.00;;;11.23;;
5032;SDS011;2535;49.888;8.942;2023-05-23T01:40:28;96.83;;;13.40;;
5032;SDS011;2535;49.888;8.942;2023-05-23T01:42:55;89.47;;;10.53;;
5032;SDS011;2535;49.888;8.942;2023-05-23T01:45:21;91.47;;;11.73;;
5032;SDS011;2535;49.888;8.942;2023-05-23T01:47:50;82.13;;;10.27;;
5032;SDS011;2535;49.888;8.942;2023-05-23T01:50:17;105.27;;;15.83;;
5032;SDS011;2535;49.888;8.942;2023-05-23T01:52:43;86.40;;;13.43;;
5032;SDS011;2535;49.888;8.942;2023-05-23T01:55:10;87.67;;;9.77;;
5032;SDS011;2535;49.888;8.942;2023-05-23T01:57:38;87.03;;;11.63;;
5032;SDS011;2535;49.888;8.942;2023-05-23T02:00:04;91.30;;;12.30;;
5032;SDS011;2535;49.888;8.942;2023-05-23T02:02:34;98.87;;;13.40;;
5032;SDS011;2535;49.888;8.942;2023-05-23T02:05:00;89.60;;;12.23;;
5032;SDS011;2535;49.888;8.942;2023-05-23T02:07:26;95.90;;;14.53;;
5032;SDS011;2535;49.888;8.942;2023-05-23T02:09:53;78.37;;;8.77;;
5032;SDS011;2535;49.888;8.942;2023-05-23T02:12:19;92.70;;;12.50;;
5032;SDS011;2535;49.888;8.942;2023-05-23T02:14:45;91.23;;;10.27;;
5032;SDS011;2535;49.888;8.942;2023-05-23T02:17:11;83.97;;;11.23;;
5032;SDS011;2535;49.888;8.942;2023-05-23T02:19:38;85.57;;;9.60;;
5032;SDS011;2535;49.888;8.942;2023-05-23T02:22:05;83.07;;;11.37;;
5032;SDS011;2535;49.888;8.942;2023-05-23T02:24:31;99.00;;;15.03;;
5032;SDS011;2535;49.888;8.942;2023-05-23T02:26:56;93.07;;;13.77;;
5032;SDS011;2535;49.888;8.942;2023-05-23T02:29:22;94.60;;;9.30;;
5032;SDS011;2535;49.888;8.942;2023-05-23T02:31:48;89.07;;;10.27;;
5032;SDS011;2535;49.888;8.942;2023-05-23T02:34:15;89.00;;;11.97;;
5032;SDS011;2535;49.888;8.942;2023-05-23T02:36:41;88.33;;;9.80;;
5032;SDS011;2535;49.888;8.942;2023-05-23T02:39:07;85.40;;;9.93;;
5032;SDS011;2535;49.888;8.942;2023-05-23T02:41:32;78.40;;;10.57;;
5032;SDS011;2535;49.888;8.942;2023-05-23T02:43:58;83.37;;;10.20;;
5032;SDS011;2535;49.888;8.942;2023-05-23T02:46:24;98.57;;;13.37;;
5032;SDS011;2535;49.888;8.942;2023-05-23T02:48:50;80.50;;;7.90;;
5032;SDS011;2535;49.888;8.942;2023-05-23T02:51:16;84.77;;;9.97;;
5032;SDS011;2535;49.888;8.942;2023-05-23T02:53:42;83.90;;;9.57;;
5032;SDS011;2535;49.888;8.942;2023-05-23T02:56:08;88.00;;;9.67;;
5032;SDS011;2535;49.888;8.942;2023-05-23T02:58:34;89.77;;;10.37;;
5032;SDS011;2535;49.888;8.942;2023-05-23T03:01:01;83.73;;;10.13;;
5032;SDS011;2535;49.888;8.942;2023-05-23T03:03:27;85.80;;;10.73;;
5032;SDS011;2535;49.888;8.942;2023-05-23T03:05:54;81.50;;;10.73;;
5032;SDS011;2535;49.888;8.942;2023-05-23T03:08:20;82.87;;;9.13;;
5032;SDS011;2535;49.888;8.942;2023-05-23T03:10:46;81.70;;;8.90;;
5032;SDS011;2535;49.888;8.942;2023-05-23T03:13:12;79.60;;;9.00;;
5032;SDS011;2535;49.888;8.942;2023-05-23T03:15:38;82.80;;;11.20;;
5032;SDS011;2535;49.888;8.942;2023-05-23T03:18:03;85.90;;;11.10;;
5032;SDS011;2535;49.888;8.942;2023-05-23T03:20:29;78.60;;;9.40;;
5032;SDS011;2535;49.888;8.942;2023-05-23T03:22:55;84.47;;;10.93;;
5032;SDS011;2535;49.888;8.942;2023-05-23T03:25:21;80.90;;;10.53;;
5032;SDS011;2535;49.888;8.942;2023-05-23T03:27:47;84.50;;;9.03;;
5032;SDS011;2535;49.888;8.942;2023-05-23T03:30:13;78.90;;;8.20;;
5032;SDS011;2535;49.888;8.942;2023-05-23T03:32:39;75.80;;;7.20;;
5032;SDS011;2535;49.888;8.942;2023-05-23T03:35:06;74.13;;;7.57;;
5032;SDS011;2535;49.888;8.942;2023-05-23T03:37:32;83.27;;;8.40;;
5032;SDS011;2535;49.888;8.942;2023-05-23T03:39:58;78.90;;;8.17;;
5032;SDS011;2535;49.888;8.942;2023-05-23T03:42:24;76.53;;;8.03;;
5032;SDS011;2535;49.888;8.942;2023-05-23T03:44:50;85.27;;;7.97;;
5032;SDS011;2535;49.888;8.942;2023-05-23T03:47:16;75.40;;;8.37;;
5032;SDS011;2535;49.888;8.942;2023-05-23T03:49:42;81.13;;;10.07;;
5032;SDS011;2535;49.888;8.942;2023-05-23T03:52:09;86.03;;;8.53;;
5032;SDS011;2535;49.888;8.942;2023-05-23T03:54:35;86.40;;;8.30;;
5032;SDS011;2535;49.888;8.942;2023-05-23T03:57:01;79.47;;;9.33;;
5032;SDS011;2535;49.888;8.942;2023-05-23T03:59:27;78.50;;;7.60;;
5032;SDS011;2535;49.888;8.942;2023-05-23T04:01:53;93.87;;;11.13;;
5032;SDS011;2535;49.888;8.942;2023-05-23T04:04:20;76.60;;;7.90;;
5032;SDS011;2535;49.888;8.942;2023-05-23T04:06:46;84.63;;;11.43;;
5032;SDS011;2535;49.888;8.942;2023-05-23T04:09:12;78.47;;;9.27;;
5032;SDS011;2535;49.888;8.942;2023-05-23T04:11:38;75.87;;;8.13;;
5032;SDS011;2535;49.888;8.942;2023-05-23T04:14:05;79.10;;;9.30;;
5032;SDS011;2535;49.888;8.942;2023-05-23T04:16:31;81.37;;;8.73;;
5032;SDS011;2535;49.888;8.942;2023-05-23T04:18:59;77.80;;;7.40;;
5032;SDS011;2535;49.888;8.942;2023-05-23T04:21:26;80.23;;;9.13;;
5032;SDS011;2535;49.888;8.942;2023-05-23T04:23:52;89.13;;;11.63;;
5032;SDS011;2535;49.888;8.942;2023-05-23T04:26:18;83.00;;;9.10;;
5032;SDS011;2535;49.888;8.942;2023-05-23T04:28:44;74.33;;;7.97;;
5032;SDS011;2535;49.888;8.942;2023-05-23T04:31:10;88.97;;;11.17;;
5032;SDS011;2535;49.888;8.942;2023-05-23T04:33:37;83.33;;;8.80;;
5032;SDS011;2535;49.888;8.942;2023-05-23T04:36:03;75.53;;;7.57;;
5032;SDS011;2535;49.888;8.942;2023-05-23T04:38:33;85.20;;;8.30;;
5032;SDS011;2535;49.888;8.942;2023-05-23T04:40:58;76.33;;;7.33;;
5032;SDS011;2535;49.888;8.942;2023-05-23T04:43:24;75.40;;;8.37;;
5032;SDS011;2535;49.888;8.942;2023-05-23T04:45:53;75.73;;;7.93;;
5032;SDS011;2535;49.888;8.942;2023-05-23T04:48:19;79.77;;;8.33;;
5032;SDS011;2535;49.888;8.942;2023-05-23T04:50:46;74.13;;;6.23;;
5032;SDS011;2535;49.888;8.942;2023-05-23T04:53:12;74.00;;;7.30;;
5032;SDS011;2535;49.888;8.942;2023-05-23T04:55:38;80.70;;;10.70;;
5032;SDS011;2535;49.888;8.942;2023-05-23T04:58:04;71.53;;;5.73;;
5032;SDS011;2535;49.888;8.942;2023-05-23T05:00:31;72.53;;;6.63;;
5032;SDS011;2535;49.888;8.942;2023-05-23T05:02:58;75.37;;;6.73;;
5032;SDS011;2535;49.888;8.942;2023-05-23T05:05:24;75.60;;;7.97;;
5032;SDS011;2535;49.888;8.942;2023-05-23T05:07:50;71.87;;;4.53;;
5032;SDS011;2535;49.888;8.942;2023-05-23T05:10:15;77.77;;;6.30;;
5032;SDS011;2535;49.888;8.942;2023-05-23T05:12:42;74.43;;;6.90;;
5032;SDS011;2535;49.888;8.942;2023-05-23T05:15:09;74.80;;;6.10;;
5032;SDS011;2535;49.888;8.942;2023-05-23T05:17:35;74.77;;;6.23;;
5032;SDS011;2535;49.888;8.942;2023-05-23T05:20:03;74.90;;;6.20;;
5032;SDS011;2535;49.888;8.942;2023-05-23T05:22:33;74.90;;;6.90;;
5032;SDS011;2535;49.888;8.942;2023-05-23T05:25:00;74.17;;;5.70;;
5032;SDS011;2535;49.888;8.942;2023-05-23T05:27:27;77.10;;;7.40;;
5032;SDS011;2535;49.888;8.942;2023-05-23T05:29:53;71.90;;;5.33;;
5032;SDS011;2535;49.888;8.942;2023-05-23T05:32:22;76.00;;;5.43;;
5032;SDS011;2535;49.888;8.942;2023-05-23T05:34:48;84.10;;;6.23;;
5032;SDS011;2535;49.888;8.942;2023-05-23T05:37:14;72.23;;;6.87;;
5032;SDS011;2535;49.888;8.942;2023-05-23T05:39:40;73.10;;;5.37;;
5032;SDS011;2535;49.888;8.942;2023-05-23T05:42:06;63.80;;;3.60;;
5032;SDS011;2535;49.888;8.942;2023-05-23T05:44:32;67.00;;;3.70;;
5032;SDS011;2535;49.888;8.942;2023-05-23T05:46:58;67.70;;;5.23;;
5032;SDS011;2535;49.888;8.942;2023-05-23T05:49:24;72.53;;;5.60;;
5032;SDS011;2535;49.888;8.942;2023-05-23T05:51:50;64.53;;;3.80;;
5032;SDS011;2535;49.888;8.942;2023-05-23T05:54:16;65.77;;;4.70;;
5032;SDS011;2535;49.888;8.942;2023-05-23T05:56:42;70.17;;;6.03;;
5032;SDS011;2535;49.888;8.942;2023-05-23T05:59:08;64.97;;;4.27;;
5032;SDS011;2535;49.888;8.942;2023-05-23T06:01:34;73.80;;;6.90;;
5032;SDS011;2535;49.888;8.942;2023-05-23T06:04:01;67.20;;;5.63;;
5032;SDS011;2535;49.888;8.942;2023-05-23T06:06:27;69.57;;;5.83;;
5032;SDS011;2535;49.888;8.942;2023-05-23T06:08:53;67.40;;;6.00;;
5032;SDS011;2535;49.888;8.942;2023-05-23T06:11:19;70.40;;;6.57;;
5032;SDS011;2535;49.888;8.942;2023-05-23T06:13:45;74.87;;;8.03;;
5032;SDS011;2535;49.888;8.942;2023-05-23T06:16:11;70.63;;;5.20;;
5032;SDS011;2535;49.888;8.942;2023-05-23T06:18:37;70.10;;;6.77;;
5032;SDS011;2535;49.888;8.942;2023-05-23T06:21:03;73.20;;;7.53;;
5032;SDS011;2535;49.888;8.942;2023-05-23T06:23:29;66.77;;;4.90;;
5032;SDS011;2535;49.888;8.942;2023-05-23T06:25:56;83.10;;;6.80;;
5032;SDS011;2535;49.888;8.942;2023-05-23T06:28:22;66.90;;;5.10;;
5032;SDS011;2535;49.888;8.942;2023-05-23T06:30:48;65.30;;;5.13;;
5032;SDS011;2535;49.888;8.942;2023-05-23T06:33:14;72.53;;;7.37;;
5032;SDS011;2535;49.888;8.942;2023-05-23T06:35:41;73.50;;;5.43;;
5032;SDS011;2535;49.888;8.942;2023-05-23T06:38:07;69.07;;;6.53;;
5032;SDS011;2535;49.888;8.942;2023-05-23T06:40:33;69.50;;;5.70;;
5032;SDS011;2535;49.888;8.942;2023-05-23T06:42:59;65.37;;;4.63;;
5032;SDS011;2535;49.888;8.942;2023-05-23T06:45:25;67.83;;;5.33;;
5032;SDS011;2535;49.888;8.942;2023-05-23T06:47:51;63.30;;;4.07;;
5032;SDS011;2535;49.888;8.942;2023-05-23T06:50:17;68.90;;;6.13;;
5032;SDS011;2535;49.888;8.942;2023-05-23T06:52:44;65.30;;;4.73;;
5032;SDS011;2535;49.888;8.942;2023-05-23T06:55:11;67.80;;;6.07;;
5032;SDS011;2535;49.888;8.942;2023-05-23T06:57:42;69.97;;;6.40;;
5032;SDS011;2535;49.888;8.942;2023-05-23T07:00:08;68.07;;;4.23;;
5032;SDS011;2535;49.888;8.942;2023-05-23T07:02:34;64.33;;;4.70;;
5032;SDS011;2535;49.888;8.942;2023-05-23T07:05:00;67.53;;;5.40;;
5032;SDS011;2535;49.888;8.942;2023-05-23T07:07:26;69.27;;;4.67;;
5032;SDS011;2535;49.888;8.942;2023-05-23T07:09:52;67.53;;;5.03;;
5032;SDS011;2535;49.888;8.942;2023-05-23T07:12:17;71.13;;;6.10;;
5032;SDS011;2535;49.888;8.942;2023-05-23T07:14:43;67.97;;;5.00;;
5032;SDS011;2535;49.888;8.942;2023-05-23T07:17:09;67.07;;;6.10;;
5032;SDS011;2535;49.888;8.942;2023-05-23T07:19:36;68.90;;;5.37;;
5032;SDS011;2535;49.888;8.942;2023-05-23T07:22:02;63.17;;;3.67;;
5032;SDS011;2535;49.888;8.942;2023-05-23T07:24:28;71.77;;;3.13;;
5032;SDS011;2535;49.888;8.942;2023-05-23T07:26:54;62.23;;;3.40;;
5032;SDS011;2535;49.888;8.942;2023-05-23T07:29:20;62.27;;;3.53;;
5032;SDS011;2535;49.888;8.942;2023-05-23T07:31:45;62.47;;;3.00;;
5032;SDS011;2535;49.888;8.942;2023-05-23T07:34:11;61.70;;;3.10;;
5032;SDS011;2535;49.888;8.942;2023-05-23T07:36:37;61.23;;;2.53;;
5032;SDS011;2535;49.888;8.942;2023-05-23T07:39:04;59.67;;;2.10;;
5032;SDS011;2535;49.888;8.942;2023-05-23T07:41:31;59.73;;;1.97;;
5032;SDS011;2535;49.888;8.942;2023-05-23T07:43:57;59.60;;;2.60;;
5032;SDS011;2535;49.888;8.942;2023-05-23T07:46:22;58.70;;;1.93;;
5032;SDS011;2535;49.888;8.942;2023-05-23T07:48:48;60.40;;;2.00;;
5032;SDS011;2535;49.888;8.942;2023-05-23T07:51:14;58.90;;;2.20;;
5032;SDS011;2535;49.888;8.942;2023-05-23T07:53:45;61.13;;;2.83;;
5032;SDS011;2535;49.888;8.942;2023-05-23T07:56:11;57.37;;;2.53;;
5032;SDS011;2535;49.888;8.942;2023-05-23T07:58:37;56.70;;;2.23;;
5032;SDS011;2535;49.888;8.942;2023-05-23T08:01:02;57.67;;;2.53;;
5032;SDS011;2535;49.888;8.942;2023-05-23T08:03:29;57.40;;;1.90;;
5032;SDS011;2535;49.888;8.942;2023-05-23T08:05:55;56.27;;;2.00;;
5032;SDS011;2535;49.888;8.942;2023-05-23T08:08:21;56.90;;;1.87;;
5032;SDS011;2535;49.888;8.942;2023-05-23T08:10:47;56.27;;;2.17;;
5032;SDS011;2535;49.888;8.942;2023-05-23T08:13:13;56.87;;;2.10;;
5032;SDS011;2535;49.888;8.942;2023-05-23T08:15:40;55.80;;;2.30;;
5032;SDS011;2535;49.888;8.942;2023-05-23T08:18:06;56.80;;;2.83;;
5032;SDS011;2535;49.888;8.942;2023-05-23T08:20:32;56.17;;;2.53;;
5032;SDS011;2535;49.888;8.942;2023-05-23T08:23:01;55.37;;;2.37;;
5032;SDS011;2535;49.888;8.942;2023-05-23T08:25:27;56.10;;;2.23;;
5032;SDS011;2535;49.888;8.942;2023-05-23T08:27:57;55.80;;;2.00;;
5032;SDS011;2535;49.888;8.942;2023-05-23T08:30:27;55.20;;;2.20;;
5032;SDS011;2535;49.888;8.942;2023-05-23T08:32:53;54.73;;;1.53;;
5032;SDS011;2535;49.888;8.942;2023-05-23T08:35:19;58.60;;;2.30;;
5032;SDS011;2535;49.888;8.942;2023-05-23T08:37:45;55.63;;;2.30;;
5032;SDS011;2535;49.888;8.942;2023-05-23T08:40:21;63.90;;;2.47;;
5032;SDS011;2535;49.888;8.942;2023-05-23T08:42:48;56.10;;;2.23;;
5032;SDS011;2535;49.888;8.942;2023-05-23T08:45:14;58.40;;;3.37;;
5032;SDS011;2535;49.888;8.942;2023-05-23T08:47:41;57.60;;;3.00;;
5032;SDS011;2535;49.888;8.942;2023-05-23T08:50:10;60.40;;;3.67;;
5032;SDS011;2535;49.888;8.942;2023-05-23T08:52:36;58.73;;;2.40;;
5032;SDS011;2535;49.888;8.942;2023-05-23T08:55:07;57.70;;;3.10;;
5032;SDS011;2535;49.888;8.942;2023-05-23T08:57:34;56.70;;;2.50;;
5032;SDS011;2535;49.888;8.942;2023-05-23T09:00:01;56.03;;;2.27;;
5032;SDS011;2535;49.888;8.942;2023-05-23T09:02:32;64.23;;;2.90;;
5032;SDS011;2535;49.888;8.942;2023-05-23T09:04:58;62.10;;;2.50;;
5032;SDS011;2535;49.888;8.942;2023-05-23T09:07:25;61.50;;;3.97;;
5032;SDS011;2535;49.888;8.942;2023-05-23T09:09:53;57.80;;;2.10;;
5032;SDS011;2535;49.888;8.942;2023-05-23T09:12:19;57.33;;;2.60;;
5032;SDS011;2535;49.888;8.942;2023-05-23T09:14:46;57.30;;;2.53;;
5032;SDS011;2535;49.888;8.942;2023-05-23T09:17:17;56.80;;;2.23;;
5032;SDS011;2535;49.888;8.942;2023-05-23T09:19:43;56.93;;;2.80;;
5032;SDS011;2535;49.888;8.942;2023-05-23T09:22:10;57.17;;;3.27;;
5032;SDS011;2535;49.888;8.942;2023-05-23T09:24:37;55.77;;;2.60;;
5032;SDS011;2535;49.888;8.942;2023-05-23T09:27:06;55.27;;;2.43;;
5032;SDS011;2535;49.888;8.942;2023-05-23T09:29:38;55.20;;;1.83;;
5032;SDS011;2535;49.888;8.942;2023-05-23T09:32:11;58.47;;;3.37;;
5032;SDS011;2535;49.888;8.942;2023-05-23T09:35:21;56.13;;;2.60;;
5032;SDS011;2535;49.888;8.942;2023-05-23T09:39:58;54.07;;;1.90;;
5032;SDS011;2535;49.888;8.942;2023-05-23T09:42:24;56.00;;;2.90;;
5032;SDS011;2535;49.888;8.942;2023-05-23T09:44:50;54.47;;;2.37;;
5032;SDS011;2535;49.888;8.942;2023-05-23T09:47:18;56.47;;;3.03;;
5032;SDS011;2535;49.888;8.942;2023-05-23T09:49:44;54.87;;;2.37;;
5032;SDS011;2535;49.888;8.942;2023-05-23T09:52:11;56.50;;;2.47;;
5032;SDS011;2535;49.888;8.942;2023-05-23T09:54:37;55.97;;;2.60;;
5032;SDS011;2535;49.888;8.942;2023-05-23T09:57:03;56.43;;;1.73;;
5032;SDS011;2535;49.888;8.942;2023-05-23T09:59:31;54.90;;;2.37;;
5032;SDS011;2535;49.888;8.942;2023-05-23T10:01:59;56.20;;;3.03;;
5032;SDS011;2535;49.888;8.942;2023-05-23T10:04:29;55.37;;;2.50;;
5032;SDS011;2535;49.888;8.942;2023-05-23T10:06:58;55.27;;;2.10;;
5032;SDS011;2535;49.888;8.942;2023-05-23T10:09:25;57.50;;;2.25;;
5032;SDS011;2535;49.888;8.942;2023-05-23T10:14:22;54.80;;;1.93;;
5032;SDS011;2535;49.888;8.942;2023-05-23T10:16:58;63.93;;;2.30;;
5032;SDS011;2535;49.888;8.942;2023-05-23T10:19:33;55.27;;;1.87;;
5032;SDS011;2535;49.888;8.942;2023-05-23T10:22:02;55.83;;;1.90;;
5032;SDS011;2535;49.888;8.942;2023-05-23T10:24:28;55.37;;;1.97;;
5032;SDS011;2535;49.888;8.942;2023-05-23T10:26:54;56.03;;;1.70;;
5032;SDS011;2535;49.888;8.942;2023-05-23T10:29:24;55.63;;;1.90;;
5032;SDS011;2535;49.888;8.942;2023-05-23T10:31:50;55.87;;;2.50;;
5032;SDS011;2535;49.888;8.942;2023-05-23T10:34:35;55.90;;;2.43;;
5032;SDS011;2535;49.888;8.942;2023-05-23T10:37:03;54.27;;;1.67;;
5032;SDS011;2535;49.888;8.942;2023-05-23T10:39:39;55.20;;;2.30;;
5032;SDS011;2535;49.888;8.942;2023-05-23T10:44:52;54.97;;;1.93;;
5032;SDS011;2535;49.888;8.942;2023-05-23T10:47:24;55.97;;;2.50;;
5032;SDS011;2535;49.888;8.942;2023-05-23T10:49:51;56.20;;;2.03;;
5032;SDS011;2535;49.888;8.942;2023-05-23T10:52:22;54.57;;;1.70;;
5032;SDS011;2535;49.888;8.942;2023-05-23T10:54:51;54.70;;;2.07;;
5032;SDS011;2535;49.888;8.942;2023-05-23T10:57:18;55.87;;;2.07;;
5032;SDS011;2535;49.888;8.942;2023-05-23T10:59:44;54.57;;;1.97;;
5032;SDS011;2535;49.888;8.942;2023-05-23T11:02:14;54.77;;;1.60;;
5032;SDS011;2535;49.888;8.942;2023-05-23T11:04:41;54.67;;;1.73;;
5032;SDS011;2535;49.888;8.942;2023-05-23T11:07:40;54.20;;;1.70;;
5032;SDS011;2535;49.888;8.942;2023-05-23T11:10:02;55.57;;;2.20;;
5032;SDS011;2535;49.888;8.942;2023-05-23T11:12:39;53.70;;;1.53;;
5032;SDS011;2535;49.888;8.942;2023-05-23T11:17:48;54.17;;;1.70;;
5032;SDS011;2535;49.888;8.942;2023-05-23T11:20:15;53.50;;;1.40;;
5032;SDS011;2535;49.888;8.942;2023-05-23T11:22:47;53.60;;;1.90;;
5032;SDS011;2535;49.888;8.942;2023-05-23T11:25:17;53.70;;;1.60;;
5032;SDS011;2535;49.888;8.942;2023-05-23T11:27:44;54.37;;;1.60;;
5032;SDS011;2535;49.888;8.942;2023-05-23T11:30:14;54.63;;;1.90;;
5032;SDS011;2535;49.888;8.942;2023-05-23T11:32:41;53.60;;;1.50;;
5032;SDS011;2535;49.888;8.942;2023-05-23T11:35:10;54.40;;;1.87;;
5032;SDS011;2535;49.888;8.942;2023-05-23T11:37:37;54.17;;;1.50;;
5032;SDS011;2535;49.888;8.942;2023-05-23T11:42:48;55.40;;;1.60;;
5032;SDS011;2535;49.888;8.942;2023-05-23T11:45:14;54.17;;;1.73;;
5032;SDS011;2535;49.888;8.942;2023-05-23T11:47:40;54.47;;;1.80;;
5032;SDS011;2535;49.888;8.942;2023-05-23T11:50:06;55.47;;;2.10;;
5032;SDS011;2535;49.888;8.942;2023-05-23T11:52:33;54.23;;;1.50;;
5032;SDS011;2535;49.888;8.942;2023-05-23T11:54:59;53.20;;;1.40;;
5032;SDS011;2535;49.888;8.942;2023-05-23T11:57:25;55.10;;;1.70;;
5032;SDS011;2535;49.888;8.942;2023-05-23T11:59:52;53.70;;;1.63;;
5032;SDS011;2535;49.888;8.942;2023-05-23T12:02:19;55.70;;;1.60;;
5032;SDS011;2535;49.888;8.942;2023-05-23T12:04:47;53.30;;;1.33;;
5032;SDS011;2535;49.888;8.942;2023-05-23T12:07:13;54.17;;;1.80;;
5032;SDS011;2535;49.888;8.942;2023-05-23T12:09:42;56.80;;;2.27;;
5032;SDS011;2535;49.888;8.942;2023-05-23T12:12:08;54.77;;;2.00;;
5032;SDS011;2535;49.888;8.942;2023-05-23T12:14:34;54.00;;;1.57;;
5032;SDS011;2535;49.888;8.942;2023-05-23T12:17:04;58.80;;;1.60;;
5032;SDS011;2535;49.888;8.942;2023-05-23T12:19:30;54.97;;;1.90;;
5032;SDS011;2535;49.888;8.942;2023-05-23T12:21:56;55.10;;;1.90;;
5032;SDS011;2535;49.888;8.942;2023-05-23T12:24:30;54.87;;;2.00;;
5032;SDS011;2535;49.888;8.942;2023-05-23T12:26:57;54.37;;;1.40;;
5032;SDS011;2535;49.888;8.942;2023-05-23T12:29:27;54.60;;;1.60;;
5032;SDS011;2535;49.888;8.942;2023-05-23T12:31:53;55.57;;;2.67;;
5032;SDS011;2535;49.888;8.942;2023-05-23T12:34:19;54.20;;;2.00;;
5032;SDS011;2535;49.888;8.942;2023-05-23T12:36:46;53.60;;;1.50;;
5032;SDS011;2535;49.888;8.942;2023-05-23T12:39:13;54.30;;;2.00;;
5032;SDS011;2535;49.888;8.942;2023-05-23T12:41:43;54.07;;;1.70;;
5032;SDS011;2535;49.888;8.942;2023-05-23T12:44:09;57.07;;;2.03;;
5032;SDS011;2535;49.888;8.942;2023-05-23T12:46:38;54.47;;;2.03;;
5032;SDS011;2535;49.888;8.942;2023-05-23T12:49:04;61.50;;;2.73;;
5032;SDS011;2535;49.888;8.942;2023-05-23T12:51:30;53.80;;;1.80;;
5032;SDS011;2535;49.888;8.942;2023-05-23T12:53:56;53.87;;;2.00;;
5032;SDS011;2535;49.888;8.942;2023-05-23T12:56:22;53.30;;;1.50;;
5032;SDS011;2535;49.888;8.942;2023-05-23T12:58:48;52.97;;;1.47;;
5032;SDS011;2535;49.888;8.942;2023-05-23T13:01:15;53.57;;;1.60;;
5032;SDS011;2535;49.888;8.942;2023-05-23T13:03:41;52.70;;;1.20;;
5032;SDS011;2535;49.888;8.942;2023-05-23T13:06:07;53.20;;;1.50;;
5032;SDS011;2535;49.888;8.942;2023-05-23T13:08:33;52.90;;;1.63;;
5032;SDS011;2535;49.888;8.942;2023-05-23T13:10:59;52.37;;;1.20;;
5032;SDS011;2535;49.888;8.942;2023-05-23T13:13:25;52.57;;;1.43;;
5032;SDS011;2535;49.888;8.942;2023-05-23T13:15:50;52.00;;;1.40;;
5032;SDS011;2535;49.888;8.942;2023-05-23T13:18:16;52.57;;;1.40;;
5032;SDS011;2535;49.888;8.942;2023-05-23T13:20:42;51.97;;;1.37;;
5032;SDS011;2535;49.888;8.942;2023-05-23T13:23:08;53.50;;;1.40;;
5032;SDS011;2535;49.888;8.942;2023-05-23T13:25:34;51.77;;;1.33;;
5032;SDS011;2535;49.888;8.942;2023-05-23T13:28:00;51.90;;;1.60;;
5032;SDS011;2535;49.888;8.942;2023-05-23T13:30:27;52.57;;;1.10;;
5032;SDS011;2535;49.888;8.942;2023-05-23T13:32:53;52.87;;;1.30;;
5032;SDS011;2535;49.888;8.942;2023-05-23T13:35:19;52.70;;;1.10;;
5032;SDS011;2535;49.888;8.942;2023-05-23T13:37:45;53.30;;;1.33;;
5032;SDS011;2535;49.888;8.942;2023-05-23T13:40:12;52.70;;;1.40;;
5032;SDS011;2535;49.888;8.942;2023-05-23T13:42:42;53.13;;;1.43;;
5032;SDS011;2535;49.888;8.942;2023-05-23T13:45:08;52.67;;;1.63;;
5032;SDS011;2535;49.888;8.942;2023-05-23T13:47:34;52.90;;;1.20;;
5032;SDS011;2535;49.888;8.942;2023-05-23T13:50:01;52.47;;;1.10;;
5032;SDS011;2535;49.888;8.942;2023-05-23T13:52:27;51.50;;;1.10;;
5032;SDS011;2535;49.888;8.942;2023-05-23T13:54:53;53.23;;;1.40;;
5032;SDS011;2535;49.888;8.942;2023-05-23T13:57:19;53.03;;;1.20;;
5032;SDS011;2535;49.888;8.942;2023-05-23T13:59:45;55.93;;;1.37;;
5032;SDS011;2535;49.888;8.942;2023-05-23T14:02:11;51.70;;;1.10;;
5032;SDS011;2535;49.888;8.942;2023-05-23T14:04:37;52.00;;;1.20;;
5032;SDS011;2535;49.888;8.942;2023-05-23T14:07:03;53.10;;;1.67;;
5032;SDS011;2535;49.888;8.942;2023-05-23T14:09:29;52.10;;;1.10;;
5032;SDS011;2535;49.888;8.942;2023-05-23T14:11:55;52.50;;;1.13;;
5032;SDS011;2535;49.888;8.942;2023-05-23T14:14:21;52.67;;;1.30;;
5032;SDS011;2535;49.888;8.942;2023-05-23T14:16:49;52.90;;;1.40;;
5032;SDS011;2535;49.888;8.942;2023-05-23T14:19:15;53.40;;;1.47;;
5032;SDS011;2535;49.888;8.942;2023-05-23T14:21:41;53.60;;;1.20;;
5032;SDS011;2535;49.888;8.942;2023-05-23T14:24:07;54.17;;;1.60;;
5032;SDS011;2535;49.888;8.942;2023-05-23T14:26:33;54.13;;;1.40;;
5032;SDS011;2535;49.888;8.942;2023-05-23T14:28:59;54.20;;;1.73;;
5032;SDS011;2535;49.888;8.942;2023-05-23T14:31:25;54.10;;;1.40;;
5032;SDS011;2535;49.888;8.942;2023-05-23T14:33:51;53.80;;;1.10;;
5032;SDS011;2535;49.888;8.942;2023-05-23T14:36:17;54.90;;;1.30;;
5032;SDS011;2535;49.888;8.942;2023-05-23T14:38:43;54.80;;;1.30;;
5032;SDS011;2535;49.888;8.942;2023-05-23T14:41:13;53.97;;;1.53;;
5032;SDS011;2535;49.888;8.942;2023-05-23T14:43:39;54.30;;;1.30;;
5032;SDS011;2535;49.888;8.942;2023-05-23T14:46:05;54.10;;;1.20;;
5032;SDS011;2535;49.888;8.942;2023-05-23T14:48:31;53.90;;;1.20;;
5032;SDS011;2535;49.888;8.942;2023-05-23T14:50:57;54.17;;;1.50;;
5032;SDS011;2535;49.888;8.942;2023-05-23T14:53:29;53.57;;;1.67;;
5032;SDS011;2535;49.888;8.942;2023-05-23T14:55:55;54.37;;;1.47;;
5032;SDS011;2535;49.888;8.942;2023-05-23T14:58:21;54.47;;;1.83;;
5032;SDS011;2535;49.888;8.942;2023-05-23T15:00:49;54.07;;;1.47;;
5032;SDS011;2535;49.888;8.942;2023-05-23T15:03:15;54.20;;;1.77;;
5032;SDS011;2535;49.888;8.942;2023-05-23T15:05:41;56.17;;;2.30;;
5032;SDS011;2535;49.888;8.942;2023-05-23T15:08:07;54.10;;;1.73;;
5032;SDS011;2535;49.888;8.942;2023-05-23T15:10:34;54.47;;;1.40;;